Time;durP1;ratioP1;P1;durP2;ratioP2;P2;SDS_P1;SDS_P2;PMS_P1;PMS_P2;Temp;Humidity;BMP_temperature;BMP_pressure;BME280_temperature;BME280_humidity;BME280_pressure;Samples;Min_cycle;Max_cycle;Signal;HPM_P1;HPM_P2
2023/06/27 00:00:39;;;;;;;1999.90;999.90;;;15.70;99.90;;;;;;4920142;29;20135;-68
2023/06/27 00:03:05;;;;;;;1999.90;999.90;;;15.70;99.90;;;;;;4902585;29;20056;-69
2023/06/27 00:05:31;;;;;;;1999.90;999.90;;;15.70;99.90;;;;;;4918885;29;20044;-68
2023/06/27 00:07:57;;;;;;;1999.90;999.90;;;15.60;99.90;;;;;;4920311;29;20055;-68
2023/06/27 00:10:23;;;;;;;1999.90;999.90;;;15.60;99.90;;;;;;4918723;29;20151;-68
2023/06/27 00:12:52;;;;;;;1999.90;999.90;;;15.60;99.90;;;;;;4903342;29;20075;-68
2023/06/27 00:15:19;;;;;;;1999.90;999.90;;;15.60;99.90;;;;;;4919891;29;20069;-69
2023/06/27 00:17:45;;;;;;;1999.90;999.90;;;15.60;99.90;;;;;;4918681;29;20048;-68
2023/06/27 00:20:12;;;;;;;1999.90;999.90;;;15.50;99.90;;;;;;4919984;29;20053;-68
2023/06/27 00:22:40;;;;;;;1999.90;999.90;;;15.50;99.90;;;;;;4919659;29;20168;-68
2023/06/27 00:25:12;;;;;;;1999.90;999.90;;;15.40;99.90;;;;;;4903368;29;20052;-68
2023/06/27 00:27:38;;;;;;;1999.90;999.90;;;15.40;99.90;;;;;;4918852;29;20135;-68
2023/06/27 00:30:04;;;;;;;1999.90;999.90;;;15.40;99.90;;;;;;4919251;29;20123;-68
2023/06/27 00:32:30;;;;;;;1999.90;999.90;;;15.40;99.90;;;;;;4919571;29;20056;-68
2023/06/27 00:34:56;;;;;;;1999.90;999.90;;;15.40;99.90;;;;;;4917774;29;20055;-68
2023/06/27 00:37:21;;;;;;;1999.90;999.90;;;15.40;99.90;;;;;;4919460;29;20056;-68
2023/06/27 00:39:47;;;;;;;1999.90;999.90;;;15.40;99.90;;;;;;4919809;29;20055;-68
2023/06/27 00:42:13;;;;;;;1999.90;999.90;;;15.40;99.90;;;;;;4918129;29;20044;-68
2023/06/27 00:44:39;;;;;;;1999.90;999.90;;;15.40;99.90;;;;;;4919263;29;20143;-69
2023/06/27 00:47:05;;;;;;;1999.90;999.90;;;15.30;99.90;;;;;;4919300;29;20044;-69
2023/06/27 00:49:31;;;;;;;1999.90;999.90;;;15.30;99.90;;;;;;4919241;29;20394;-69
2023/06/27 00:51:57;;;;;;;1999.90;999.90;;;15.30;99.90;;;;;;4918321;29;20111;-69
2023/06/27 00:54:23;;;;;;;1999.90;999.90;;;15.30;99.90;;;;;;4919294;29;20082;-68
2023/06/27 00:56:55;;;;;;;1999.90;999.90;;;15.30;99.90;;;;;;4917838;29;20085;-68
2023/06/27 00:59:22;;;;;;;1999.90;999.90;;;15.30;99.90;;;;;;4919048;29;20138;-68
2023/06/27 01:01:48;;;;;;;1999.90;999.90;;;15.30;99.90;;;;;;4919291;29;20390;-68
2023/06/27 01:04:14;;;;;;;1999.90;999.90;;;15.30;99.90;;;;;;4917519;29;20506;-68
2023/06/27 01:07:03;;;;;;;1999.90;999.90;;;15.30;99.90;;;;;;4919054;29;20048;-68
2023/06/27 01:09:44;;;;;;;1999.90;999.90;;;15.30;99.90;;;;;;4917791;29;20048;-68
2023/06/27 01:12:20;;;;;;;1999.90;999.90;;;15.30;99.90;;;;;;4918979;29;20040;-69
2023/06/27 01:14:47;;;;;;;1999.90;999.90;;;15.30;99.90;;;;;;4918037;29;20052;-69
2023/06/27 01:17:14;;;;;;;1999.90;999.90;;;15.30;99.90;;;;;;4917881;29;20085;-68
2023/06/27 01:19:44;;;;;;;1999.90;999.90;;;15.30;99.90;;;;;;4918826;29;20056;-68
2023/06/27 01:22:16;;;;;;;1999.90;999.90;;;15.30;99.90;;;;;;4918471;29;20063;-68
2023/06/27 01:24:43;;;;;;;1999.90;999.90;;;15.30;99.90;;;;;;4918806;29;20055;-68
2023/06/27 01:27:11;;;;;;;1999.90;999.90;;;15.30;99.90;;;;;;4918576;29;20055;-68
2023/06/27 01:29:40;;;;;;;1999.90;999.90;;;15.20;99.90;;;;;;4918593;29;20075;-68
2023/06/27 01:32:09;;;;;;;1999.90;999.90;;;15.20;99.90;;;;;;4918444;29;20067;-68
2023/06/27 01:34:48;;;;;;;1999.90;999.90;;;15.20;99.90;;;;;;4917211;29;20507;-68
2023/06/27 01:37:23;;;;;;;1999.90;999.90;;;15.10;99.90;;;;;;4918524;29;20147;-69
2023/06/27 01:39:54;;;;;;;1999.90;999.90;;;15.10;99.90;;;;;;4918617;29;20047;-68
2023/06/27 01:42:34;;;;;;;1999.90;999.90;;;15.10;99.90;;;;;;4918624;29;20091;-68
2023/06/27 01:45:02;;;;;;;1999.90;999.90;;;15.00;99.90;;;;;;4901568;29;20059;-68
2023/06/27 01:47:29;;;;;;;1999.90;999.90;;;15.00;99.90;;;;;;4917037;29;20055;-68
2023/06/27 01:49:55;;;;;;;1999.90;999.90;;;15.00;99.90;;;;;;4918262;29;20048;-68
2023/06/27 01:52:21;;;;;;;1999.90;999.90;;;15.00;99.90;;;;;;4918073;29;20056;-68
2023/06/27 01:54:47;;;;;;;1999.90;999.90;;;14.90;99.90;;;;;;4918026;29;20044;-68
2023/06/27 01:57:13;;;;;;;1999.90;999.90;;;15.00;99.90;;;;;;4901392;29;20500;-68
2023/06/27 01:59:39;;;;;;;1999.90;999.90;;;14.90;99.90;;;;;;4916808;29;20048;-68
2023/06/27 02:02:05;;;;;;;1999.90;999.90;;;14.90;99.90;;;;;;4917876;29;20051;-69
2023/06/27 02:04:31;;;;;;;1999.90;999.90;;;14.90;99.90;;;;;;4917487;29;20553;-68
2023/06/27 02:06:57;;;;;;;1999.90;999.90;;;14.90;99.90;;;;;;4917855;29;20460;-68
2023/06/27 02:09:23;;;;;;;1999.90;999.90;;;14.90;99.90;;;;;;4918093;29;20056;-68
2023/06/27 02:11:48;;;;;;;1999.90;999.90;;;14.90;99.90;;;;;;4917620;29;20056;-68
2023/06/27 02:14:14;;;;;;;1999.90;999.90;;;14.90;99.90;;;;;;4916573;29;20048;-68
2023/06/27 02:16:40;;;;;;;1999.90;999.90;;;14.80;99.90;;;;;;4917819;29;20489;-68
2023/06/27 02:19:05;;;;;;;1999.90;999.90;;;14.80;99.90;;;;;;4917912;29;20056;-68
2023/06/27 02:21:31;;;;;;;1999.90;999.90;;;14.80;99.90;;;;;;4917989;29;20051;-69
2023/06/27 02:23:57;;;;;;;1999.90;999.90;;;14.80;99.90;;;;;;4916794;29;20553;-68
2023/06/27 02:26:22;;;;;;;1999.90;999.90;;;14.80;99.90;;;;;;4916390;29;20048;-68
2023/06/27 02:28:48;;;;;;;1999.90;999.90;;;14.80;99.90;;;;;;4917396;29;20044;-68
2023/06/27 02:31:14;;;;;;;1999.90;999.90;;;14.70;99.90;;;;;;4917943;29;20093;-68
2023/06/27 02:33:40;;;;;;;1999.90;999.90;;;14.70;99.90;;;;;;4916974;29;20048;-68
2023/06/27 02:36:06;;;;;;;1999.90;999.90;;;14.70;99.90;;;;;;4917513;29;20484;-68
2023/06/27 02:38:32;;;;;;;1999.90;999.90;;;14.70;99.90;;;;;;4917385;29;20051;-68
2023/06/27 02:40:58;;;;;;;1999.90;999.90;;;14.70;99.90;;;;;;4917193;29;20040;-68
2023/06/27 02:43:24;;;;;;;1999.90;999.90;;;14.70;99.90;;;;;;4917518;29;20048;-68
2023/06/27 02:45:49;;;;;;;1999.90;999.90;;;14.70;99.90;;;;;;4916554;29;20040;-68
2023/06/27 02:48:15;;;;;;;1999.90;999.90;;;14.70;99.90;;;;;;4917244;29;20083;-68
2023/06/27 02:50:41;;;;;;;1999.90;999.90;;;14.70;99.90;;;;;;4917228;29;20081;-68
2023/06/27 02:53:07;;;;;;;1999.90;999.90;;;14.70;99.90;;;;;;4916379;29;20575;-68
2023/06/27 02:55:33;;;;;;;1999.90;999.90;;;14.60;99.90;;;;;;4900758;29;20206;-68
2023/06/27 02:57:59;;;;;;;1999.90;999.90;;;14.60;99.90;;;;;;4916200;29;20048;-68
2023/06/27 03:00:24;;;;;;;1999.90;999.90;;;14.60;99.90;;;;;;4917307;29;20400;-68
2023/06/27 03:02:50;;;;;;;1999.90;999.90;;;14.60;99.90;;;;;;4916714;29;20096;-69
2023/06/27 03:05:16;;;;;;;1999.90;999.90;;;14.60;99.90;;;;;;4917428;29;20132;-68
2023/06/27 03:07:41;;;;;;;1999.90;999.90;;;14.60;99.90;;;;;;4917252;29;20046;-68
2023/06/27 03:10:07;;;;;;;1999.90;999.90;;;14.50;99.90;;;;;;4917157;29;20070;-68
2023/06/27 03:12:33;;;;;;;1999.90;999.90;;;14.50;99.90;;;;;;4917020;29;20047;-68
2023/06/27 03:14:59;;;;;;;1999.90;999.90;;;14.50;99.90;;;;;;4915885;29;20055;-68
2023/06/27 03:17:25;;;;;;;1999.90;999.90;;;14.50;99.90;;;;;;4917215;29;20055;-68
2023/06/27 03:19:50;;;;;;;1999.90;999.90;;;14.40;99.90;;;;;;4921201;29;20515;-69
2023/06/27 03:22:16;;;;;;;1999.90;999.90;;;14.40;99.90;;;;;;4919410;29;20051;-68
2023/06/27 03:24:42;;;;;;;1999.90;999.90;;;14.30;99.90;;;;;;4934659;29;20099;-68
2023/06/27 03:27:08;;;;;;;1999.90;999.90;;;14.30;99.90;;;;;;4935754;29;20103;-68
2023/06/27 03:29:33;;;;;;;1999.90;999.90;;;14.30;99.90;;;;;;4935886;29;20062;-68
2023/06/27 03:31:59;;;;;;;1999.90;999.90;;;14.30;99.90;;;;;;4936018;29;20056;-68
2023/06/27 03:34:25;;;;;;;1999.90;999.90;;;14.30;99.90;;;;;;4933967;29;20082;-68
2023/06/27 03:36:50;;;;;;;1999.90;999.90;;;14.30;99.90;;;;;;4919267;29;20107;-68
2023/06/27 03:39:16;;;;;;;1999.90;999.90;;;14.20;99.90;;;;;;4935905;29;20055;-68
2023/06/27 03:41:42;;;;;;;1999.90;999.90;;;14.30;99.90;;;;;;4934814;29;20057;-68
2023/06/27 03:44:08;;;;;;;1999.90;999.90;;;14.20;99.90;;;;;;4935578;29;20061;-68
2023/06/27 03:46:34;;;;;;;1999.90;999.90;;;14.20;99.90;;;;;;4934655;29;20051;-68
2023/06/27 03:49:00;;;;;;;1999.90;999.90;;;14.20;99.90;;;;;;4936046;29;20044;-68
2023/06/27 03:51:27;;;;;;;1999.90;999.90;;;14.20;99.90;;;;;;4935907;29;20517;-68
2023/06/27 03:53:52;;;;;;;1999.90;999.90;;;14.30;99.90;;;;;;4935517;29;20048;-68
2023/06/27 03:56:19;;;;;;;1999.90;999.90;;;14.30;99.90;;;;;;4935482;29;20055;-68
2023/06/27 03:58:44;;;;;;;1999.90;999.90;;;14.30;99.90;;;;;;4921479;29;20055;-68
2023/06/27 04:01:11;;;;;;;1999.90;999.90;;;14.30;99.90;;;;;;4939223;29;20054;-68
2023/06/27 04:03:37;;;;;;;1999.90;999.90;;;14.30;99.90;;;;;;4938896;29;20052;-67
2023/06/27 04:06:03;;;;;;;1999.90;999.90;;;14.30;99.90;;;;;;4937867;29;20056;-68
2023/06/27 04:08:29;;;;;;;1999.90;999.90;;;14.30;99.90;;;;;;4938070;29;20134;-68
2023/06/27 04:10:55;;;;;;;1999.90;999.90;;;14.30;99.90;;;;;;4922058;29;20048;-68
2023/06/27 04:13:20;;;;;;;1999.90;999.90;;;14.30;99.90;;;;;;4938716;29;20051;-69
2023/06/27 04:15:46;;;;;;;1999.90;999.90;;;14.30;99.90;;;;;;4939311;29;20047;-68
2023/06/27 04:18:12;;;;;;;1999.90;999.90;;;14.30;99.90;;;;;;4921887;29;20083;-68
2023/06/27 04:20:37;;;;;;;1999.90;999.90;;;14.30;99.90;;;;;;4937702;29;20073;-68
2023/06/27 04:23:03;;;;;;;1999.90;999.90;;;14.40;99.90;;;;;;4938747;29;20116;-68
2023/06/27 04:25:33;;;;;;;1999.90;999.90;;;14.40;99.90;;;;;;4937338;29;20052;-68
2023/06/27 04:27:59;;;;;;;1999.90;999.90;;;14.50;99.90;;;;;;4938474;29;20460;-68
2023/06/27 04:30:25;;;;;;;1999.90;999.90;;;14.60;99.90;;;;;;4937353;29;20059;-67
2023/06/27 04:32:51;;;;;;;1999.90;999.90;;;14.60;99.90;;;;;;4938219;29;20056;-69
2023/06/27 04:35:18;;;;;;;1999.90;999.90;;;14.70;99.90;;;;;;4937664;29;20499;-68
2023/06/27 04:37:44;;;;;;;1999.90;999.90;;;14.70;99.90;;;;;;4938565;29;20056;-68
2023/06/27 04:40:11;;;;;;;1999.90;999.90;;;14.80;99.90;;;;;;4938293;29;20049;-68
2023/06/27 04:42:37;;;;;;;1999.90;999.90;;;14.90;99.90;;;;;;4938143;29;20178;-68
2023/06/27 04:45:03;;;;;;;1999.90;999.90;;;14.90;99.90;;;;;;4938754;29;20043;-68
2023/06/27 04:47:29;;;;;;;1999.90;999.90;;;15.00;99.90;;;;;;4938372;29;20048;-68
2023/06/27 04:49:54;;;;;;;1999.90;999.90;;;15.10;99.90;;;;;;4921623;29;20106;-69
2023/06/27 04:52:20;;;;;;;1999.90;999.90;;;15.10;99.90;;;;;;4937470;29;20464;-68
2023/06/27 04:54:50;;;;;;;1999.90;999.90;;;15.10;99.90;;;;;;4938001;29;20051;-69
2023/06/27 04:57:17;;;;;;;1999.90;999.90;;;15.20;99.90;;;;;;4938311;29;20071;-69
2023/06/27 04:59:43;;;;;;;1999.90;999.90;;;15.20;99.90;;;;;;4937156;29;20059;-68
2023/06/27 05:02:09;;;;;;;1999.90;999.90;;;15.30;99.90;;;;;;4937161;29;20063;-68
2023/06/27 05:04:35;;;;;;;1999.90;999.90;;;15.40;99.90;;;;;;4937626;29;20043;-68
2023/06/27 05:07:00;;;;;;;1999.90;999.90;;;15.40;99.90;;;;;;4938032;29;20123;-68
2023/06/27 05:09:26;;;;;;;1999.90;999.90;;;15.50;99.90;;;;;;4935903;29;20456;-68
2023/06/27 05:11:52;;;;;;;1999.90;999.90;;;15.50;99.90;;;;;;4931660;29;20051;-69
2023/06/27 05:14:17;;;;;;;1999.90;999.90;;;15.60;99.90;;;;;;4921661;29;20062;-68
2023/06/27 05:16:43;;;;;;;1999.90;999.90;;;15.70;99.90;;;;;;4918749;29;20051;-68
2023/06/27 05:19:09;;;;;;;1999.90;999.90;;;15.70;99.90;;;;;;4918751;29;20060;-68
2023/06/27 05:21:34;;;;;;;1999.90;999.90;;;15.70;99.90;;;;;;4918692;29;20087;-68
2023/06/27 05:24:00;;;;;;;1999.90;999.90;;;15.80;99.90;;;;;;4918558;29;20054;-68
2023/06/27 05:26:26;;;;;;;1999.90;999.90;;;15.90;99.90;;;;;;4918367;29;20492;-68
2023/06/27 05:28:51;;;;;;;1999.90;999.90;;;16.00;99.90;;;;;;4917986;29;20445;-68
2023/06/27 05:31:17;;;;;;;1999.90;999.90;;;16.00;99.90;;;;;;4949004;29;20059;-68
2023/06/27 05:33:44;;;;;;;1999.90;999.90;;;16.10;99.90;;;;;;4948745;29;20091;-68
2023/06/27 05:36:10;;;;;;;1999.90;999.90;;;16.20;99.90;;;;;;4949258;29;20052;-67
2023/06/27 05:38:35;;;;;;;1999.90;999.90;;;16.20;99.90;;;;;;4918098;29;20058;-68
2023/06/27 05:41:02;;;;;;;1999.90;999.90;;;16.30;99.90;;;;;;4918430;29;20052;-68
2023/06/27 05:43:28;;;;;;;1999.90;999.90;;;16.30;99.90;;;;;;4918390;29;20094;-68
2023/06/27 05:45:54;;;;;;;1999.90;999.90;;;16.40;99.90;;;;;;4918270;29;20084;-68
2023/06/27 05:48:19;;;;;;;1999.90;999.90;;;16.50;99.90;;;;;;4918273;29;20048;-68
2023/06/27 05:50:45;;;;;;;1999.90;999.90;;;16.50;99.90;;;;;;4901530;29;20064;-68
2023/06/27 05:53:11;;;;;;;1999.90;999.90;;;16.60;99.90;;;;;;4916878;29;20050;-67
2023/06/27 05:55:36;;;;;;;1999.90;999.90;;;16.60;99.90;;;;;;4917934;29;20091;-68
2023/06/27 05:58:02;;;;;;;1999.90;999.90;;;16.70;99.90;;;;;;4918088;29;20047;-68
2023/06/27 06:00:28;;;;;;;1999.90;999.90;;;16.70;99.90;;;;;;4918089;29;20135;-68
2023/06/27 06:02:53;;;;;;;1999.90;999.90;;;16.80;99.90;;;;;;4917951;29;20136;-68
2023/06/27 06:05:19;;;;;;;1999.90;999.90;;;16.90;99.90;;;;;;4917417;29;20104;-68
2023/06/27 06:07:45;;;;;;;1999.90;999.90;;;16.90;99.90;;;;;;4948381;29;20044;-67
2023/06/27 06:10:12;;;;;;;1999.90;999.90;;;16.90;99.90;;;;;;4917893;29;20134;-67
2023/06/27 06:12:38;;;;;;;1999.90;999.90;;;17.00;99.90;;;;;;4917875;29;20063;-67
2023/06/27 06:15:04;;;;;;;1999.90;999.90;;;17.10;99.90;;;;;;4932834;29;20621;-67
2023/06/27 06:17:30;;;;;;;1999.90;999.90;;;17.10;99.90;;;;;;4916523;29;20044;-67
2023/06/27 06:19:56;;;;;;;1999.90;999.90;;;17.20;99.90;;;;;;4917563;29;20473;-68
2023/06/27 06:22:21;;;;;;;1999.90;999.90;;;17.20;99.90;;;;;;4916260;29;20099;-68
2023/06/27 06:24:48;;;;;;;1999.90;999.90;;;17.30;99.90;;;;;;4918077;29;20047;-67
2023/06/27 06:27:13;;;;;;;1999.90;999.90;;;17.30;99.90;;;;;;4917396;29;20537;-68
2023/06/27 06:29:39;;;;;;;1999.90;999.90;;;17.40;99.90;;;;;;4917656;29;20063;-67
2023/06/27 06:32:05;;;;;;;1999.90;999.90;;;17.50;99.90;;;;;;4917612;29;20056;-67
2023/06/27 06:34:31;;;;;;;1999.90;999.90;;;17.50;99.90;;;;;;4947729;29;20044;-68
2023/06/27 06:36:57;;;;;;;1999.90;999.90;;;17.60;99.90;;;;;;4917489;29;20063;-68
2023/06/27 06:39:22;;;;;;;1999.90;999.90;;;17.60;99.90;;;;;;4916567;29;20055;-69
2023/06/27 06:41:48;;;;;;;1999.90;999.90;;;17.70;99.90;;;;;;4948013;29;20048;-67
2023/06/27 06:44:14;;;;;;;1999.90;999.90;;;17.80;99.90;;;;;;4917525;29;20137;-69
2023/06/27 06:46:41;;;;;;;1999.90;999.90;;;17.80;99.90;;;;;;4916428;29;20091;-68
2023/06/27 06:49:08;;;;;;;1999.90;999.90;;;17.90;99.90;;;;;;4948246;29;20416;-68
2023/06/27 06:51:34;;;;;;;1999.90;999.90;;;17.90;99.90;;;;;;4916138;29;20119;-69
2023/06/27 06:53:59;;;;;;;1999.90;999.90;;;18.00;99.90;;;;;;4947938;28;20496;-69
2023/06/27 06:56:25;;;;;;;1999.90;999.90;;;18.00;99.90;;;;;;4917510;29;20067;-69
2023/06/27 06:58:51;;;;;;;1999.90;999.90;;;18.10;99.90;;;;;;4917359;29;20408;-68
2023/06/27 07:01:16;;;;;;;1999.90;999.90;;;18.10;99.90;;;;;;4917114;29;20131;-69
2023/06/27 07:03:42;;;;;;;1999.90;999.90;;;18.20;99.90;;;;;;4915434;29;20048;-69
2023/06/27 07:06:08;;;;;;;1999.90;999.90;;;18.20;99.90;;;;;;4915915;29;20048;-69
2023/06/27 07:08:34;;;;;;;1999.90;999.90;;;18.30;99.90;;;;;;4931625;29;20050;-69
2023/06/27 07:11:00;;;;;;;1999.90;999.90;;;18.40;99.90;;;;;;4916206;29;20051;-69
2023/06/27 07:13:25;;;;;;;1999.90;999.90;;;18.40;99.90;;;;;;4917253;29;20056;-68
2023/06/27 07:15:51;;;;;;;1999.90;999.90;;;18.50;99.90;;;;;;4917367;29;20473;-69
2023/06/27 07:18:18;;;;;;;1999.90;999.90;;;18.50;99.90;;;;;;4900362;29;20462;-68
2023/06/27 07:20:43;;;;;;;1999.90;999.90;;;18.60;99.90;;;;;;4915858;29;20083;-67
2023/06/27 07:23:09;;;;;;;1999.90;999.90;;;18.60;99.90;;;;;;4916870;29;20130;-69
2023/06/27 07:25:36;;;;;;;1999.90;999.90;;;18.70;99.90;;;;;;4947334;28;20573;-68
2023/06/27 07:28:02;;;;;;;1999.90;999.90;;;18.70;99.90;;;;;;4917357;29;20580;-69
2023/06/27 07:30:28;;;;;;;1999.90;999.90;;;18.80;99.90;;;;;;4915700;29;20060;-68
2023/06/27 07:32:53;;;;;;;1999.90;999.90;;;18.80;99.90;;;;;;4918658;29;20511;-70
2023/06/27 07:35:19;;;;;;;1999.90;999.90;;;18.90;99.90;;;;;;4951155;28;20052;-68
2023/06/27 07:37:45;;;;;;;1999.90;999.90;;;19.00;99.90;;;;;;4920536;29;20140;-68
2023/06/27 07:40:11;;;;;;;1999.90;999.90;;;19.10;99.90;;;;;;4951757;29;20454;-67
2023/06/27 07:42:37;;;;;;;1999.90;999.90;;;19.20;99.90;;;;;;4920622;29;20052;-69
2023/06/27 07:45:02;;;;;;;1999.90;999.90;;;19.30;99.90;;;;;;4920715;29;20079;-68
2023/06/27 07:47:28;;;;;;;1999.90;999.90;;;19.40;99.90;;;;;;4919313;29;20131;-68
2023/06/27 07:49:54;;;;;;;1999.90;999.90;;;19.50;99.90;;;;;;4951359;28;20087;-69
2023/06/27 07:52:20;;;;;;;1999.90;999.90;;;19.50;99.90;;;;;;4951505;29;20091;-69
2023/06/27 07:54:46;;;;;;;1999.90;999.90;;;19.60;99.90;;;;;;4920491;29;20526;-70
2023/06/27 07:57:11;;;;;;;1999.90;999.90;;;19.70;99.90;;;;;;4920494;29;20091;-70
2023/06/27 07:59:37;;;;;;;1999.90;999.90;;;19.80;99.90;;;;;;4919475;29;20051;-68
2023/06/27 08:02:03;;;;;;;1999.90;999.90;;;19.80;99.90;;;;;;4919496;29;20063;-69
2023/06/27 08:04:29;;;;;;;1999.90;999.90;;;19.90;99.90;;;;;;4919652;29;20052;-69
2023/06/27 08:06:54;;;;;;;1999.90;999.90;;;19.90;99.90;;;;;;4934638;29;20128;-69
2023/06/27 08:09:20;;;;;;;1999.90;999.90;;;20.00;99.90;;;;;;4950795;29;20084;-70
2023/06/27 08:11:46;;;;;;;1999.90;999.90;;;20.00;99.90;;;;;;4919967;29;20052;-70
2023/06/27 08:14:12;;;;;;;1999.90;999.90;;;20.00;99.90;;;;;;4903710;29;20048;-68
2023/06/27 08:16:38;;;;;;;1999.90;999.90;;;19.90;99.90;;;;;;4912414;29;20493;-69
2023/06/27 08:19:03;;;;;;;1999.90;999.90;;;19.90;99.90;;;;;;4908722;29;20047;-68
2023/06/27 08:21:29;;;;;;;1999.90;999.90;;;19.80;99.90;;;;;;4909538;29;20104;-71
2023/06/27 08:23:55;;;;;;;1999.90;999.90;;;19.80;99.90;;;;;;4908493;29;20045;-69
2023/06/27 08:26:20;;;;;;;1999.90;999.90;;;19.70;99.90;;;;;;4909859;29;20044;-68
2023/06/27 08:28:46;;;;;;;1999.90;999.90;;;19.60;99.90;;;;;;4894096;29;20079;-68
2023/06/27 08:31:12;;;;;;;1999.90;999.90;;;19.60;99.90;;;;;;4908727;29;20063;-71
2023/06/27 08:33:39;;;;;;;1999.90;999.90;;;19.70;99.90;;;;;;4909492;29;20047;-70
2023/06/27 08:36:05;;;;;;;1999.90;999.90;;;19.70;99.90;;;;;;4910141;29;20045;-68
2023/06/27 08:38:31;;;;;;;1999.90;999.90;;;19.70;99.90;;;;;;4911001;29;20127;-69
2023/06/27 08:40:57;;;;;;;1999.90;999.90;;;19.80;99.90;;;;;;4909322;29;20124;-68
2023/06/27 08:43:23;;;;;;;1999.90;999.90;;;19.90;99.90;;;;;;4907806;29;20059;-69
2023/06/27 08:45:53;;;;;;;1999.90;999.90;;;20.00;99.90;;;;;;4909848;29;20036;-69
2023/06/27 08:48:20;;;;;;;1999.90;999.90;;;20.00;99.90;;;;;;4892541;29;20148;-69
2023/06/27 08:50:52;;;;;;;1999.90;999.90;;;20.10;99.90;;;;;;4908905;29;20064;-69
2023/06/27 08:53:20;;;;;;;1999.90;999.90;;;20.10;99.90;;;;;;4909950;29;20051;-69
2023/06/27 08:56:08;;;;;;;1999.90;999.90;;;20.20;99.90;;;;;;4910153;29;20037;-68
2023/06/27 08:58:37;;;;;;;1999.90;999.90;;;20.20;99.90;;;;;;4907594;29;20492;-69
2023/06/27 09:01:04;;;;;;;1999.90;999.90;;;20.20;99.90;;;;;;4908777;29;20099;-68
2023/06/27 09:03:31;;;;;;;1999.90;999.90;;;20.20;99.90;;;;;;4909626;29;20516;-68
2023/06/27 09:05:57;;;;;;;1999.90;999.90;;;20.20;99.90;;;;;;4907811;29;20055;-70
2023/06/27 09:08:22;;;;;;;1999.90;999.90;;;20.10;99.90;;;;;;4892354;29;20059;-68
2023/06/27 09:10:48;;;;;;;1999.90;999.90;;;20.00;99.90;;;;;;4910153;29;20197;-69
2023/06/27 09:13:16;;;;;;;1999.90;999.90;;;20.00;99.90;;;;;;4908803;29;20500;-69
2023/06/27 09:15:42;;;;;;;1999.90;999.90;;;20.00;99.90;;;;;;4908106;29;20490;-69
2023/06/27 09:18:07;;;;;;;1999.90;999.90;;;20.00;99.90;;;;;;4908270;29;20052;-68
2023/06/27 09:20:34;;;;;;;1999.90;999.90;;;20.00;99.90;;;;;;4891592;29;20072;-68
2023/06/27 09:23:05;;;;;;;1999.90;999.90;;;20.10;99.90;;;;;;4909019;29;20120;-70
2023/06/27 09:25:31;;;;;;;1999.90;999.90;;;20.20;99.90;;;;;;4909698;29;20119;-70
2023/06/27 09:27:58;;;;;;;1999.90;999.90;;;20.30;99.60;;;;;;4907008;29;20476;-71
2023/06/27 09:30:24;;;;;;;1999.90;999.90;;;20.30;99.40;;;;;;4908229;29;20075;-70
2023/06/27 09:32:56;;;;;;;1999.90;999.90;;;20.30;99.20;;;;;;4909716;29;20048;-68
2023/06/27 09:35:23;;;;;;;1999.90;999.90;;;20.30;98.80;;;;;;4907520;29;20049;-70
2023/06/27 09:37:49;;;;;;;1999.90;999.90;;;20.30;99.20;;;;;;4906670;29;20064;-69
2023/06/27 09:40:18;;;;;;;1999.90;999.90;;;20.40;99.20;;;;;;4909881;29;20048;-71
2023/06/27 09:42:57;;;;;;;1999.90;999.90;;;20.50;99.00;;;;;;4908230;29;20123;-69
2023/06/27 09:45:24;;;;;;;1999.90;999.90;;;20.50;98.70;;;;;;4910124;29;20048;-69
2023/06/27 09:47:50;;;;;;;1999.90;999.90;;;20.60;98.60;;;;;;4908374;29;20048;-70
2023/06/27 09:50:17;;;;;;;1999.90;999.90;;;20.60;98.20;;;;;;4908340;29;20452;-69
2023/06/27 09:52:54;;;;;;;1999.90;999.90;;;20.60;98.20;;;;;;4907818;29;20058;-70
2023/06/27 09:55:20;;;;;;;1999.90;999.90;;;20.50;97.70;;;;;;4906766;29;20123;-67
2023/06/27 09:57:47;;;;;;;1999.90;999.90;;;20.40;98.20;;;;;;4907507;29;20467;-68
2023/06/27 10:00:13;;;;;;;1999.90;999.90;;;20.40;98.30;;;;;;4908880;29;20054;-68
2023/06/27 10:02:40;;;;;;;1999.90;999.90;;;20.40;98.50;;;;;;4906063;29;20045;-69
2023/06/27 10:05:06;;;;;;;1999.90;999.90;;;20.40;98.60;;;;;;4908065;29;20115;-68
2023/06/27 10:07:32;;;;;;;1999.90;999.90;;;20.50;98.50;;;;;;4907899;29;20044;-68
2023/06/27 10:09:58;;;;;;;1999.90;999.90;;;20.70;98.50;;;;;;4908828;29;20055;-69
2023/06/27 10:12:24;;;;;;;1999.90;999.90;;;20.80;98.20;;;;;;4907578;29;20405;-69
2023/06/27 10:14:50;;;;;;;1999.90;999.90;;;20.90;97.20;;;;;;4907169;29;20488;-69
2023/06/27 10:17:18;;;;;;;1999.90;999.90;;;20.90;96.80;;;;;;4907025;29;20157;-70
2023/06/27 10:19:45;;;;;;;1999.90;999.90;;;20.90;96.80;;;;;;4907279;29;20131;-69
2023/06/27 10:22:15;;;;;;;1999.90;999.90;;;20.90;96.70;;;;;;4908208;29;20083;-72
2023/06/27 10:24:44;;;;;;;1999.90;999.90;;;20.90;96.30;;;;;;4905931;29;20051;-70
2023/06/27 10:27:12;;;;;;;1999.90;999.90;;;20.90;96.30;;;;;;4890878;29;20052;-69
2023/06/27 10:29:42;;;;;;;1999.90;999.90;;;20.90;96.30;;;;;;4905033;29;20058;-70
2023/06/27 10:32:08;;;;;;;1999.90;999.90;;;20.90;96.10;;;;;;4882077;29;20059;-70
2023/06/27 10:34:44;;;;;;;1999.90;999.90;;;20.90;96.20;;;;;;4898347;29;20076;-71
2023/06/27 10:37:19;;;;;;;1999.90;999.90;;;20.90;96.20;;;;;;4898835;29;20119;-72
2023/06/27 10:40:00;;;;;;;1999.90;999.90;;;20.90;96.00;;;;;;4898636;29;20508;-71
2023/06/27 10:42:29;;;;;;;1999.90;999.90;;;20.90;95.80;;;;;;4882402;29;20061;-71
2023/06/27 10:45:05;;;;;;;1999.90;999.90;;;21.00;96.10;;;;;;4882023;29;20450;-72
2023/06/27 10:47:34;;;;;;;1999.90;999.90;;;21.10;95.80;;;;;;4897402;29;20048;-69
2023/06/27 10:50:05;;;;;;;1999.90;999.90;;;21.20;95.30;;;;;;4898708;29;20136;-70
2023/06/27 10:52:32;;;;;;;1999.90;999.90;;;21.20;95.20;;;;;;4898717;29;20060;-71
2023/06/27 10:55:16;;;;;;;1999.90;999.90;;;21.10;94.90;;;;;;4897374;29;20049;-70
2023/06/27 10:57:48;;;;;;;1999.90;999.90;;;21.00;95.00;;;;;;4897561;29;20060;-71
2023/06/27 11:00:15;;;;;;;1999.90;999.90;;;21.00;95.20;;;;;;4898633;29;20092;-71
2023/06/27 11:02:47;;;;;;;1999.90;999.90;;;21.00;95.20;;;;;;4897319;29;20485;-70
2023/06/27 11:05:17;;;;;;;1999.90;999.90;;;21.10;94.80;;;;;;4898118;29;20131;-71
2023/06/27 11:07:58;;;;;;;1999.90;999.90;;;21.20;95.00;;;;;;4899910;29;20104;-72
2023/06/27 11:10:27;;;;;;;1999.90;999.90;;;21.30;94.90;;;;;;4902448;29;20052;-74
2023/06/27 11:13:16;;;;;;;1999.90;999.90;;;21.30;94.80;;;;;;4885837;29;20078;-73
2023/06/27 11:15:43;;;;;;;1999.90;999.90;;;21.40;94.90;;;;;;4902440;29;20546;-68
2023/06/27 11:18:11;;;;;;;1999.90;999.90;;;21.40;95.00;;;;;;4901206;29;20064;-70
2023/06/27 11:20:37;;;;;;;1999.90;999.90;;;21.40;94.80;;;;;;4901286;29;20127;-71
2023/06/27 11:23:03;;;;;;;1999.90;999.90;;;21.40;94.80;;;;;;4902202;29;20051;-70
2023/06/27 11:25:38;;;;;;;1999.90;999.90;;;21.40;94.90;;;;;;4902094;29;20048;-67
2023/06/27 11:28:04;;;;;;;1999.90;999.90;;;21.50;94.30;;;;;;4901410;29;20136;-71
2023/06/27 11:30:33;;;;;;;1999.90;999.90;;;21.50;94.60;;;;;;4901854;29;20060;-71
2023/06/27 11:32:59;;;;;;;1999.90;999.90;;;21.50;94.60;;;;;;4901058;29;20088;-70
2023/06/27 11:35:26;;;;;;;1999.90;999.90;;;21.40;94.80;;;;;;4884748;29;20127;-71
2023/06/27 11:37:56;;;;;;;1999.90;999.90;;;21.40;95.00;;;;;;4901780;29;20048;-70
2023/06/27 11:40:26;;;;;;;1999.90;999.90;;;21.40;95.20;;;;;;4900855;29;20116;-71
2023/06/27 11:43:07;;;;;;;1999.90;999.90;;;21.40;95.30;;;;;;4901943;29;20455;-69
2023/06/27 11:45:36;;;;;;;1999.90;999.90;;;21.40;95.10;;;;;;4901755;29;20480;-70
2023/06/27 11:48:02;;;;;;;1999.90;999.90;;;21.40;95.40;;;;;;4901684;29;20124;-70
2023/06/27 11:50:28;;;;;;;1999.90;999.90;;;21.40;95.30;;;;;;4885145;29;20060;-68
2023/06/27 11:52:58;;;;;;;1999.90;999.90;;;21.50;95.10;;;;;;4901694;29;20055;-72
2023/06/27 11:55:24;;;;;;;1999.90;999.90;;;21.50;95.10;;;;;;4901048;29;20143;-70
2023/06/27 11:57:55;;;;;;;1999.90;999.90;;;21.50;94.60;;;;;;4885021;29;20091;-71